Terminal Aerodrome Forecast
Issued by NWS Binghamton, NY

Home | Current Version | Previous Version | Text Only | Print | Product List | Glossary On
Versions: 1 2 3 4 5 6 7 8 9 10 11 12 13 14 15 16 17 18 19 20 21 22 23 24 25
000
FTUS41 KBGM 290522
TAFSYR
TAF
KSYR 290522Z 2906/3006 31006KT P6SM FEW016 OVC022
     FM291300 32007KT P6SM OVC035
     FM291600 32011G17KT P6SM SCT040
     FM300000 34006KT P6SM FEW060=

USA.gov is the U.S. government's official web portal to all federal, state and local government web resources and services.